Time;durP1;ratioP1;P1;durP2;ratioP2;P2;SDS_P1;SDS_P2;PMS_P1;PMS_P2;Temp;Humidity;BMP_temperature;BMP_pressure;BME280_temperature;BME280_humidity;BME280_pressure;Samples;Min_cycle;Max_cycle;Signal;HPM_P1;HPM_P2
2023/06/12 00:02:08;;;;;;;;;;;;;;;23.64;20.88;101834.28;5052818;28;20370;-69
2023/06/12 00:04:34;;;;;;;;;;;;;;;23.65;20.70;101845.00;5053956;28;20008;-68
2023/06/12 00:07:01;;;;;;;;;;;;;;;23.61;21.33;101843.03;5053885;28;20428;-68
2023/06/12 00:09:27;;;;;;;;;;;;;;;23.60;21.75;101841.34;5060115;28;19921;-69
2023/06/12 00:11:52;;;;;;;;;;;;;;;23.58;21.89;101845.16;5053631;28;19963;-68
2023/06/12 00:14:18;;;;;;;;;;;;;;;23.57;21.56;101845.44;5054227;28;20362;-68
2023/06/12 00:16:43;;;;;;;;;;;;;;;23.51;21.40;101844.50;5053871;28;19924;-68
2023/06/12 00:19:09;;;;;;;;;;;;;;;23.51;21.02;101850.00;5054227;28;19919;-68
2023/06/12 00:21:35;;;;;;;;;;;;;;;23.47;21.63;101845.22;5054332;28;19935;-68
2023/06/12 00:24:00;;;;;;;;;;;;;;;23.41;21.54;101854.44;5052973;28;19959;-68
2023/06/12 00:26:26;;;;;;;;;;;;;;;23.36;21.41;101846.94;5054247;28;19917;-69
2023/06/12 00:28:51;;;;;;;;;;;;;;;23.31;20.86;101844.09;5054159;28;20392;-69
2023/06/12 00:31:16;;;;;;;;;;;;;;;23.22;21.25;101840.94;5053985;28;19951;-69
2023/06/12 00:33:41;;;;;;;;;;;;;;;23.18;21.24;101837.03;5036514;28;19924;-69
2023/06/12 00:36:07;;;;;;;;;;;;;;;23.13;21.32;101836.94;5054138;28;19920;-69
2023/06/12 00:38:34;;;;;;;;;;;;;;;23.03;21.51;101837.53;5053899;28;19917;-69
2023/06/12 00:40:59;;;;;;;;;;;;;;;22.98;21.35;101845.66;5053872;28;19913;-69
2023/06/12 00:43:25;;;;;;;;;;;;;;;22.90;21.43;101843.25;5053723;28;20408;-69
2023/06/12 00:45:50;;;;;;;;;;;;;;;22.86;21.62;101840.19;5053704;28;19913;-69
2023/06/12 00:48:15;;;;;;;;;;;;;;;22.79;21.83;101851.28;5053889;28;19955;-69
2023/06/12 00:50:41;;;;;;;;;;;;;;;22.71;21.75;101843.44;5053623;28;19923;-68
2023/06/12 00:53:07;;;;;;;;;;;;;;;22.75;21.42;101843.78;5053667;28;20357;-68
2023/06/12 00:55:32;;;;;;;;;;;;;;;22.69;21.63;101850.22;5053517;28;19913;-68
2023/06/12 00:57:58;;;;;;;;;;;;;;;22.63;21.80;101849.28;5053435;28;19976;-69
2023/06/12 01:00:24;;;;;;;;;;;;;;;22.60;21.77;101856.09;5053750;28;19944;-69
2023/06/12 01:03:03;;;;;;;;;;;;;;;22.55;21.72;101849.66;5052618;28;19920;-69
2023/06/12 01:05:33;;;;;;;;;;;;;;;22.59;22.08;101851.69;5053347;28;19920;-68
2023/06/12 01:08:16;;;;;;;;;;;;;;;22.60;21.84;101850.63;5053258;28;19913;-68
2023/06/12 01:10:42;;;;;;;;;;;;;;;22.60;21.44;101852.50;5072704;28;20011;-68
2023/06/12 01:13:09;;;;;;;;;;;;;;;22.60;21.89;101861.56;5073177;28;19952;-69
2023/06/12 01:15:35;;;;;;;;;;;;;;;22.52;21.75;101859.19;5055232;28;19912;-69
2023/06/12 01:18:02;;;;;;;;;;;;;;;22.46;22.03;101851.09;5073273;28;19919;-69
2023/06/12 01:20:28;;;;;;;;;;;;;;;22.44;22.25;101861.47;5072966;28;19951;-69
2023/06/12 01:22:59;;;;;;;;;;;;;;;22.34;22.12;101862.03;5072930;28;19944;-68
2023/06/12 01:25:36;;;;;;;;;;;;;;;22.28;22.38;101866.56;5073094;28;19912;-69
2023/06/12 01:28:15;;;;;;;;;;;;;;;22.19;22.05;101867.97;5050628;28;19920;-69
2023/06/12 01:31:01;;;;;;;;;;;;;;;22.12;22.46;101861.75;5052680;28;20318;-69
2023/06/12 01:33:32;;;;;;;;;;;;;;;22.02;22.35;101865.09;5052754;28;19935;-69
2023/06/12 01:36:00;;;;;;;;;;;;;;;21.98;22.66;101866.63;5052612;28;19913;-69
2023/06/12 01:38:27;;;;;;;;;;;;;;;22.00;22.39;101859.84;5052544;28;19917;-69
2023/06/12 01:40:53;;;;;;;;;;;;;;;22.08;21.96;101860.56;5035144;28;19966;-68
2023/06/12 01:43:18;;;;;;;;;;;;;;;22.01;22.14;101857.97;5052814;28;19920;-69
2023/06/12 01:45:44;;;;;;;;;;;;;;;21.98;22.27;101859.25;5052637;28;20339;-69
2023/06/12 01:48:09;;;;;;;;;;;;;;;21.88;22.47;101858.16;5052751;28;19917;-69
2023/06/12 01:50:34;;;;;;;;;;;;;;;21.83;22.26;101856.16;5052601;28;20258;-68
2023/06/12 01:53:01;;;;;;;;;;;;;;;21.85;22.31;101848.53;5052704;28;19950;-69
2023/06/12 01:55:27;;;;;;;;;;;;;;;21.91;22.24;101857.69;5034814;28;19995;-69
2023/06/12 01:57:52;;;;;;;;;;;;;;;21.82;22.61;101859.94;5052563;28;20007;-69
2023/06/12 02:00:18;;;;;;;;;;;;;;;21.72;22.21;101863.25;5052634;28;19920;-68
2023/06/12 02:02:44;;;;;;;;;;;;;;;21.65;22.67;101867.97;5051941;28;19956;-69
2023/06/12 02:05:09;;;;;;;;;;;;;;;21.58;22.89;101872.72;5052522;28;20017;-69
2023/06/12 02:07:35;;;;;;;;;;;;;;;21.55;22.59;101867.72;5052296;28;20400;-68
2023/06/12 02:10:00;;;;;;;;;;;;;;;21.56;22.57;101869.38;5066275;28;20053;-68
2023/06/12 02:12:25;;;;;;;;;;;;;;;21.54;22.69;101866.03;5072375;28;19999;-68
2023/06/12 02:14:53;;;;;;;;;;;;;;;21.49;22.73;101872.22;5072355;28;20357;-68
2023/06/12 02:17:19;;;;;;;;;;;;;;;21.44;22.56;101869.31;5054624;28;20407;-68
2023/06/12 02:19:46;;;;;;;;;;;;;;;21.38;22.63;101872.97;5072504;28;19923;-68
2023/06/12 02:22:11;;;;;;;;;;;;;;;21.41;22.69;101875.22;5072294;28;19912;-68
2023/06/12 02:24:37;;;;;;;;;;;;;;;21.36;22.82;101870.47;5065743;28;19919;-69
2023/06/12 02:27:02;;;;;;;;;;;;;;;21.42;22.79;101877.75;5052174;28;19959;-69
2023/06/12 02:29:28;;;;;;;;;;;;;;;21.47;23.07;101882.56;5051873;28;20289;-68
2023/06/12 02:31:53;;;;;;;;;;;;;;;21.50;22.90;101879.34;5051845;28;19913;-70
2023/06/12 02:34:18;;;;;;;;;;;;;;;21.50;22.60;101882.06;5052070;28;19912;-69
2023/06/12 02:36:46;;;;;;;;;;;;;;;21.51;23.36;101880.16;5051828;28;19916;-69
2023/06/12 02:39:12;;;;;;;;;;;;;;;21.55;22.90;101882.22;5053150;28;19913;-69
2023/06/12 02:41:39;;;;;;;;;;;;;;;21.54;22.92;101882.44;5038177;28;19913;-68
2023/06/12 02:44:05;;;;;;;;;;;;;;;21.49;22.80;101883.16;5056077;28;20242;-68
2023/06/12 02:46:30;;;;;;;;;;;;;;;21.51;23.28;101882.91;5056106;28;19971;-68
2023/06/12 02:48:55;;;;;;;;;;;;;;;21.46;23.13;101878.16;5056083;28;19912;-69
2023/06/12 02:51:21;;;;;;;;;;;;;;;21.45;23.61;101879.19;5056015;28;20469;-69
2023/06/12 02:53:46;;;;;;;;;;;;;;;21.46;23.48;101878.16;5038130;28;20008;-69
2023/06/12 02:56:11;;;;;;;;;;;;;;;21.45;23.46;101884.66;5055871;28;20246;-69
2023/06/12 02:58:40;;;;;;;;;;;;;;;21.45;23.17;101885.53;5055634;28;19952;-69
2023/06/12 03:01:05;;;;;;;;;;;;;;;21.44;23.47;101891.19;5054960;28;20340;-69
2023/06/12 03:03:31;;;;;;;;;;;;;;;21.49;23.52;101890.50;5055663;28;19956;-69
2023/06/12 03:05:56;;;;;;;;;;;;;;;21.50;23.77;101889.44;5055437;28;20007;-69
2023/06/12 03:08:22;;;;;;;;;;;;;;;21.49;23.77;101885.03;5055668;28;19913;-69
2023/06/12 03:10:47;;;;;;;;;;;;;;;21.45;23.71;101884.66;5075041;28;20361;-69
2023/06/12 03:13:15;;;;;;;;;;;;;;;21.49;23.64;101887.78;5075112;28;19947;-68
2023/06/12 03:15:40;;;;;;;;;;;;;;;21.48;23.53;101895.16;5075409;28;19912;-69
2023/06/12 03:18:06;;;;;;;;;;;;;;;21.49;23.42;101895.97;5075045;28;20357;-69
2023/06/12 03:20:34;;;;;;;;;;;;;;;21.49;23.74;101895.97;5071137;28;19913;-68
2023/06/12 03:23:01;;;;;;;;;;;;;;;21.52;23.63;101895.53;5055354;28;20004;-68
2023/06/12 03:25:26;;;;;;;;;;;;;;;21.49;23.69;101891.34;5055028;28;19920;-69
2023/06/12 03:27:52;;;;;;;;;;;;;;;21.51;23.58;101894.69;5054747;28;19939;-69
2023/06/12 03:30:17;;;;;;;;;;;;;;;21.52;24.25;101899.06;5054617;28;19916;-69
2023/06/12 03:32:42;;;;;;;;;;;;;;;21.55;23.38;101901.34;5054628;28;19971;-69
2023/06/12 03:35:08;;;;;;;;;;;;;;;21.58;23.56;101897.31;5054625;28;19920;-69
2023/06/12 03:37:33;;;;;;;;;;;;;;;21.57;23.51;101901.13;5054834;28;19913;-69
2023/06/12 03:39:58;;;;;;;;;;;;;;;21.60;23.51;101906.97;5055038;28;19959;-69
2023/06/12 03:42:24;;;;;;;;;;;;;;;21.50;23.60;101901.22;5037081;28;19913;-69
2023/06/12 03:44:49;;;;;;;;;;;;;;;21.45;23.66;101899.19;5055034;28;19913;-69
2023/06/12 03:47:14;;;;;;;;;;;;;;;21.53;23.85;101897.19;5054962;28;19917;-69
2023/06/12 03:49:40;;;;;;;;;;;;;;;21.58;24.07;101900.03;5054916;28;19917;-69
2023/06/12 03:52:05;;;;;;;;;;;;;;;21.57;23.62;101896.50;5054519;28;19912;-69
2023/06/12 03:54:31;;;;;;;;;;;;;;;21.61;23.97;101894.94;5054547;28;20350;-69
2023/06/12 03:56:56;;;;;;;;;;;;;;;21.61;23.95;101894.13;5055015;28;19913;-69
2023/06/12 03:59:21;;;;;;;;;;;;;;;21.67;23.55;101900.56;5054360;28;20406;-69
2023/06/12 04:01:48;;;;;;;;;;;;;;;21.67;23.92;101895.09;5053607;28;19973;-69
2023/06/12 04:04:14;;;;;;;;;;;;;;;21.62;23.78;101893.91;5036631;28;19921;-69
2023/06/12 04:06:40;;;;;;;;;;;;;;;21.67;23.81;101901.38;5054453;28;19917;-69
2023/06/12 04:09:07;;;;;;;;;;;;;;;21.63;24.01;101892.81;5042965;28;19920;-69
2023/06/12 04:11:34;;;;;;;;;;;;;;;21.61;24.40;101894.94;5056603;28;19927;-69
2023/06/12 04:14:00;;;;;;;;;;;;;;;21.69;23.86;101902.00;5074430;28;19912;-69
2023/06/12 04:16:27;;;;;;;;;;;;;;;21.75;23.91;101901.06;5073420;28;19912;-68
2023/06/12 04:18:53;;;;;;;;;;;;;;;21.75;24.42;101895.59;5054575;28;19913;-68
2023/06/12 04:21:20;;;;;;;;;;;;;;;21.88;24.15;101900.03;5054224;28;19913;-69
2023/06/12 04:23:47;;;;;;;;;;;;;;;21.87;24.46;101894.81;5054287;28;19925;-68
2023/06/12 04:26:15;;;;;;;;;;;;;;;21.82;23.85;101898.22;5054195;28;19995;-69
2023/06/12 04:28:41;;;;;;;;;;;;;;;21.79;23.97;101898.72;5054301;28;19917;-69
2023/06/12 04:31:07;;;;;;;;;;;;;;;21.82;24.30;101896.34;5054039;28;19923;-69
2023/06/12 04:33:35;;;;;;;;;;;;;;;21.82;23.85;101890.03;5053907;28;20011;-68
2023/06/12 04:36:01;;;;;;;;;;;;;;;21.81;23.61;101897.41;5036032;28;19917;-68
2023/06/12 04:38:30;;;;;;;;;;;;;;;21.85;23.78;101893.13;5053770;28;19959;-68
2023/06/12 04:40:56;;;;;;;;;;;;;;;21.85;24.17;101890.38;5036004;28;19956;-68
2023/06/12 04:43:21;;;;;;;;;;;;;;;21.89;24.07;101881.72;5053384;28;19940;-68
2023/06/12 04:45:47;;;;;;;;;;;;;;;21.90;23.97;101891.56;5053296;28;19956;-68
2023/06/12 04:48:13;;;;;;;;;;;;;;;21.96;24.07;101887.94;5053548;28;19921;-68
2023/06/12 04:50:38;;;;;;;;;;;;;;;22.04;23.71;101887.56;5053369;28;20019;-68
2023/06/12 04:53:03;;;;;;;;;;;;;;;22.07;23.87;101886.28;5035779;28;19927;-68
2023/06/12 04:55:30;;;;;;;;;;;;;;;22.12;23.69;101887.25;5053361;28;19913;-68
2023/06/12 04:57:58;;;;;;;;;;;;;;;22.13;24.17;101893.53;5053120;28;20337;-69
2023/06/12 05:00:23;;;;;;;;;;;;;;;22.16;24.16;101891.16;5034882;28;20003;-68
2023/06/12 05:02:49;;;;;;;;;;;;;;;22.19;24.14;101884.38;5051431;28;19967;-68
2023/06/12 05:05:19;;;;;;;;;;;;;;;22.20;24.21;101888.78;5035539;28;19963;-69
2023/06/12 05:07:46;;;;;;;;;;;;;;;22.19;24.18;101892.59;5035317;28;19999;-69
2023/06/12 05:10:12;;;;;;;;;;;;;;;22.22;24.58;101887.47;5068292;28;19917;-68
2023/06/12 05:12:37;;;;;;;;;;;;;;;22.27;25.48;101884.06;5072385;28;19920;-69
2023/06/12 05:15:03;;;;;;;;;;;;;;;22.31;24.74;101888.00;5053482;28;20288;-69
2023/06/12 05:17:28;;;;;;;;;;;;;;;22.38;25.34;101885.13;5053234;28;19919;-69
2023/06/12 05:19:53;;;;;;;;;;;;;;;22.47;25.46;101885.59;5035598;28;19944;-69
2023/06/12 05:22:19;;;;;;;;;;;;;;;22.52;25.88;101886.56;5053278;28;19913;-69
2023/06/12 05:24:44;;;;;;;;;;;;;;;22.55;25.72;101888.81;5053249;28;19917;-69
2023/06/12 05:27:10;;;;;;;;;;;;;;;22.61;25.78;101879.66;5053298;28;20282;-69
2023/06/12 05:29:35;;;;;;;;;;;;;;;22.59;25.98;101884.53;5052927;28;20383;-69
2023/06/12 05:32:01;;;;;;;;;;;;;;;22.62;27.38;101883.22;5035073;28;19952;-70
2023/06/12 05:34:26;;;;;;;;;;;;;;;22.57;27.22;101886.69;5035035;28;19916;-69
2023/06/12 05:36:54;;;;;;;;;;;;;;;22.65;26.67;101892.88;5035016;28;19927;-69
2023/06/12 05:39:19;;;;;;;;;;;;;;;22.66;25.85;101887.16;5052656;28;19912;-69
2023/06/12 05:41:45;;;;;;;;;;;;;;;22.71;28.30;101897.38;5035020;28;20028;-69
2023/06/12 05:44:10;;;;;;;;;;;;;;;22.65;27.08;101887.41;5052694;28;19939;-69
2023/06/12 05:46:35;;;;;;;;;;;;;;;22.77;25.97;101889.03;5034710;28;20035;-70
2023/06/12 05:49:01;;;;;;;;;;;;;;;22.72;27.22;101893.59;5034811;28;19913;-70
2023/06/12 05:51:27;;;;;;;;;;;;;;;22.67;27.69;101891.53;5052663;28;19916;-69
2023/06/12 05:53:53;;;;;;;;;;;;;;;22.84;26.24;101879.84;5052562;28;19917;-69
2023/06/12 05:56:18;;;;;;;;;;;;;;;22.87;27.43;101885.69;5034626;28;20015;-68
2023/06/12 05:58:44;;;;;;;;;;;;;;;22.91;27.42;101886.03;5052125;28;19925;-68
2023/06/12 06:01:11;;;;;;;;;;;;;;;22.90;26.91;101881.63;5033879;28;19913;-68
2023/06/12 06:03:36;;;;;;;;;;;;;;;22.84;28.29;101888.91;5052311;28;19912;-68
2023/06/12 06:06:02;;;;;;;;;;;;;;;22.90;26.55;101887.09;5052428;28;19920;-69
2023/06/12 06:08:28;;;;;;;;;;;;;;;23.06;26.41;101880.91;5053442;28;20342;-68
2023/06/12 06:10:53;;;;;;;;;;;;;;;23.06;26.35;101885.56;5055406;28;19917;-70
2023/06/12 06:13:19;;;;;;;;;;;;;;;23.00;26.60;101879.94;5024382;28;20455;-72
2023/06/12 06:15:44;;;;;;;;;;;;;;;23.07;27.81;101881.72;5049624;28;19948;-71
2023/06/12 06:18:09;;;;;;;;;;;;;;;23.18;26.17;101880.88;5047733;28;19927;-71
2023/06/12 06:20:35;;;;;;;;;;;;;;;23.05;26.36;101875.66;5031155;28;19913;-71
2023/06/12 06:23:00;;;;;;;;;;;;;;;23.15;26.84;101878.63;5046960;28;20291;-71
2023/06/12 06:25:28;;;;;;;;;;;;;;;23.18;25.96;101880.88;5049606;28;19917;-71
2023/06/12 06:27:53;;;;;;;;;;;;;;;23.19;26.10;101877.88;5047984;28;19966;-69
2023/06/12 06:30:18;;;;;;;;;;;;;;;23.26;26.16;101875.00;5063626;28;20359;-69
2023/06/12 06:32:44;;;;;;;;;;;;;;;23.37;25.77;101865.91;5049488;28;20483;-70
2023/06/12 06:35:09;;;;;;;;;;;;;;;23.48;25.77;101866.09;5047433;28;19913;-71
2023/06/12 06:37:35;;;;;;;;;;;;;;;23.46;26.25;101868.22;5031249;28;20073;-71
2023/06/12 06:40:01;;;;;;;;;;;;;;;23.50;26.08;101863.94;5031051;28;19913;-71
2023/06/12 06:42:27;;;;;;;;;;;;;;;23.45;27.02;101863.84;5047479;28;19932;-69
2023/06/12 06:44:53;;;;;;;;;;;;;;;23.52;26.05;101865.34;5060850;28;20003;-70
2023/06/12 06:47:18;;;;;;;;;;;;;;;23.61;26.81;101871.28;5053392;28;20436;-69
2023/06/12 06:49:43;;;;;;;;;;;;;;;23.71;26.06;101863.22;5058247;28;19964;-69
2023/06/12 06:52:09;;;;;;;;;;;;;;;23.73;27.40;101871.19;5059288;28;19912;-71
2023/06/12 06:54:35;;;;;;;;;;;;;;;23.74;25.96;101865.47;5041496;28;19913;-69
2023/06/12 06:57:00;;;;;;;;;;;;;;;23.82;26.63;101872.47;5058462;28;19919;-68
2023/06/12 06:59:25;;;;;;;;;;;;;;;23.70;27.06;101871.69;5040265;28;19983;-70
2023/06/12 07:01:51;;;;;;;;;;;;;;;23.76;26.90;101870.72;5057553;28;19929;-70
2023/06/12 07:04:16;;;;;;;;;;;;;;;23.78;26.31;101877.59;5040699;28;19913;-70
2023/06/12 07:06:41;;;;;;;;;;;;;;;23.77;26.44;101878.69;5058898;28;19913;-70
2023/06/12 07:09:08;;;;;;;;;;;;;;;23.82;26.47;101877.16;5048600;28;19916;-70
2023/06/12 07:11:33;;;;;;;;;;;;;;;23.96;25.70;101873.00;5061546;28;19920;-70
2023/06/12 07:13:58;;;;;;;;;;;;;;;23.90;25.39;101877.59;5078887;28;19920;-70
2023/06/12 07:16:23;;;;;;;;;;;;;;;23.92;26.35;101874.56;5060665;28;19976;-70
2023/06/12 07:18:49;;;;;;;;;;;;;;;24.02;26.55;101879.41;5078514;28;19997;-71
2023/06/12 07:21:14;;;;;;;;;;;;;;;24.11;25.91;101877.91;5078319;28;20009;-71
2023/06/12 07:23:40;;;;;;;;;;;;;;;24.05;25.64;101874.25;5078269;28;19917;-70
2023/06/12 07:26:05;;;;;;;;;;;;;;;24.14;25.48;101877.41;5075127;28;19920;-70
2023/06/12 07:28:30;;;;;;;;;;;;;;;24.29;25.46;101874.91;5074765;28;19917;-71
2023/06/12 07:30:56;;;;;;;;;;;;;;;24.31;25.85;101874.63;5058653;28;19917;-71
2023/06/12 07:33:21;;;;;;;;;;;;;;;24.32;25.90;101868.06;5054442;28;20356;-72
2023/06/12 07:35:46;;;;;;;;;;;;;;;24.30;25.89;101865.56;5052658;28;19919;-72
2023/06/12 07:38:12;;;;;;;;;;;;;;;24.34;25.95;101872.22;5054038;28;20377;-73
2023/06/12 07:40:38;;;;;;;;;;;;;;;24.39;25.56;101867.91;5059858;28;19944;-72
2023/06/12 07:43:04;;;;;;;;;;;;;;;24.52;25.41;101868.41;5036167;28;19928;-73
2023/06/12 07:45:30;;;;;;;;;;;;;;;24.56;25.05;101863.22;5035689;28;20332;-72
2023/06/12 07:47:57;;;;;;;;;;;;;;;24.65;25.20;101864.47;5053946;28;20000;-73
2023/06/12 07:50:23;;;;;;;;;;;;;;;24.74;25.63;101856.63;5054617;28;19917;-71
2023/06/12 07:52:48;;;;;;;;;;;;;;;24.81;25.18;101868.22;5054658;28;19920;-73
2023/06/12 07:55:14;;;;;;;;;;;;;;;24.91;24.82;101859.28;5054664;28;19913;-73
2023/06/12 07:57:40;;;;;;;;;;;;;;;24.89;24.68;101858.72;5054275;28;19913;-73
2023/06/12 08:00:07;;;;;;;;;;;;;;;24.95;24.58;101852.19;5054752;28;19924;-73
2023/06/12 08:02:33;;;;;;;;;;;;;;;25.07;24.23;101849.31;5035836;28;19913;-73
2023/06/12 08:04:59;;;;;;;;;;;;;;;25.15;24.48;101857.09;5054368;28;19969;-73
2023/06/12 08:07:26;;;;;;;;;;;;;;;25.21;24.08;101842.31;5036453;28;19968;-72
2023/06/12 08:09:51;;;;;;;;;;;;;;;25.29;24.50;101847.38;5067013;28;20029;-73
2023/06/12 08:12:16;;;;;;;;;;;;;;;25.34;24.49;101848.53;5074420;28;19916;-73
2023/06/12 08:14:42;;;;;;;;;;;;;;;25.34;24.40;101846.63;5074244;28;19912;-73
2023/06/12 08:17:07;;;;;;;;;;;;;;;25.41;24.47;101850.00;5074582;28;19958;-73
2023/06/12 08:19:32;;;;;;;;;;;;;;;25.50;24.06;101847.56;5074256;28;19924;-73
2023/06/12 08:21:58;;;;;;;;;;;;;;;25.53;23.60;101849.00;5074357;28;20420;-73
2023/06/12 08:24:25;;;;;;;;;;;;;;;25.69;23.47;101840.63;5056417;28;19917;-74
2023/06/12 08:26:50;;;;;;;;;;;;;;;25.73;22.86;101838.19;5056293;28;20011;-73
2023/06/12 08:29:15;;;;;;;;;;;;;;;25.82;23.23;101844.03;5056297;28;20003;-73
2023/06/12 08:31:41;;;;;;;;;;;;;;;25.85;22.95;101838.00;5055923;28;19970;-73
2023/06/12 08:34:09;;;;;;;;;;;;;;;26.04;22.76;101838.47;5073941;28;19913;-73
2023/06/12 08:36:35;;;;;;;;;;;;;;;25.99;22.32;101843.91;5063586;28;19963;-73
2023/06/12 08:39:00;;;;;;;;;;;;;;;26.12;21.82;101837.13;5053826;28;19916;-73
2023/06/12 08:41:27;;;;;;;;;;;;;;;26.25;21.97;101837.50;5053959;28;19913;-73
2023/06/12 08:43:53;;;;;;;;;;;;;;;26.34;20.92;101843.34;5052620;28;19916;-73
2023/06/12 08:46:18;;;;;;;;;;;;;;;26.34;20.38;101832.31;5052673;28;20337;-74
2023/06/12 08:48:44;;;;;;;;;;;;;;;26.49;20.74;101834.31;5052410;28;19913;-73
2023/06/12 08:51:10;;;;;;;;;;;;;;;26.61;20.21;101828.63;5053726;28;19924;-73
2023/06/12 08:53:35;;;;;;;;;;;;;;;26.70;20.23;101827.00;5052394;28;20499;-73
2023/06/12 08:56:01;;;;;;;;;;;;;;;26.76;20.31;101828.69;5053373;28;19998;-73
2023/06/12 08:58:26;;;;;;;;;;;;;;;26.92;20.27;101823.25;5053789;28;19927;-73
2023/06/12 09:00:52;;;;;;;;;;;;;;;26.97;20.30;101826.03;5052803;28;19935;-72
2023/06/12 09:03:19;;;;;;;;;;;;;;;27.12;19.91;101819.72;5035725;28;19948;-72
2023/06/12 09:05:45;;;;;;;;;;;;;;;27.13;19.72;101816.66;5053540;28;19920;-73
2023/06/12 09:08:11;;;;;;;;;;;;;;;27.11;19.79;101818.03;5053236;28;19982;-73
2023/06/12 09:10:38;;;;;;;;;;;;;;;27.27;19.60;101811.50;5072176;28;20327;-72
2023/06/12 09:13:09;;;;;;;;;;;;;;;27.38;19.36;101815.09;5055692;28;20045;-73
2023/06/12 09:15:34;;;;;;;;;;;;;;;27.53;19.49;101811.53;5073349;28;19912;-73
2023/06/12 09:17:59;;;;;;;;;;;;;;;27.41;18.77;101822.81;5055345;28;19920;-73
2023/06/12 09:20:28;;;;;;;;;;;;;;;27.54;19.13;101811.22;5055484;28;19916;-73
2023/06/12 09:22:54;;;;;;;;;;;;;;;27.63;18.79;101814.28;5055330;28;19917;-73
2023/06/12 09:25:20;;;;;;;;;;;;;;;27.85;19.39;101805.72;5055211;28;20015;-73
2023/06/12 09:27:46;;;;;;;;;;;;;;;28.00;18.58;101811.25;5038553;28;19991;-72
2023/06/12 09:30:11;;;;;;;;;;;;;;;28.07;19.20;101805.44;5072967;28;19935;-73
2023/06/12 09:32:37;;;;;;;;;;;;;;;28.19;18.36;101810.66;5051612;28;19912;-73
2023/06/12 09:35:03;;;;;;;;;;;;;;;28.21;18.80;101802.09;5052945;28;19917;-72
2023/06/12 09:37:29;;;;;;;;;;;;;;;28.31;18.33;101808.41;5051759;28;19920;-73
2023/06/12 09:40:08;;;;;;;;;;;;;;;28.45;18.86;101805.06;5052889;28;19913;-73
2023/06/12 09:42:37;;;;;;;;;;;;;;;28.64;18.55;101802.53;5051505;28;19917;-73
2023/06/12 09:45:12;;;;;;;;;;;;;;;28.79;18.23;101799.69;5051558;28;19912;-73
2023/06/12 09:47:45;;;;;;;;;;;;;;;28.96;18.23;101802.91;5051597;28;19917;-73
2023/06/12 09:50:12;;;;;;;;;;;;;;;29.13;18.09;101804.47;5050857;28;19963;-73
2023/06/12 09:52:40;;;;;;;;;;;;;;;29.06;17.50;101801.19;5052778;28;20261;-73
2023/06/12 09:55:06;;;;;;;;;;;;;;;29.15;17.19;101796.75;5052673;28;19916;-73
2023/06/12 09:57:35;;;;;;;;;;;;;;;29.31;17.87;101786.41;5052451;28;19946;-73
2023/06/12 10:00:02;;;;;;;;;;;;;;;29.53;18.28;101783.16;5034713;28;19921;-73
2023/06/12 10:02:28;;;;;;;;;;;;;;;29.62;17.51;101789.72;5051120;28;20465;-73
2023/06/12 10:05:05;;;;;;;;;;;;;;;29.70;16.64;101791.06;5052506;28;19921;-73
2023/06/12 10:07:32;;;;;;;;;;;;;;;29.85;16.38;101793.72;5052355;28;20022;-73
2023/06/12 10:09:58;;;;;;;;;;;;;;;29.98;17.03;101775.59;5048101;28;20007;-73
2023/06/12 10:12:25;;;;;;;;;;;;;;;30.25;16.31;101777.75;5054503;28;20345;-73
2023/06/12 10:14:50;;;;;;;;;;;;;;;30.35;16.30;101778.78;5072529;28;19913;-73
2023/06/12 10:17:16;;;;;;;;;;;;;;;30.37;15.47;101785.72;5054381;28;19983;-74
2023/06/12 10:19:47;;;;;;;;;;;;;;;30.61;16.18;101776.53;5074692;28;19916;-74
2023/06/12 10:22:12;;;;;;;;;;;;;;;30.72;15.47;101777.22;5075660;28;20428;-73
2023/06/12 10:24:38;;;;;;;;;;;;;;;30.72;14.44;101780.00;5073856;28;19952;-73
2023/06/12 10:27:05;;;;;;;;;;;;;;;30.94;16.29;101763.59;5072880;28;19921;-73
2023/06/12 10:29:32;;;;;;;;;;;;;;;31.15;15.28;101766.06;5058799;28;19983;-73
2023/06/12 10:32:04;;;;;;;;;;;;;;;31.18;14.61;101771.03;5051192;28;20015;-73
2023/06/12 10:34:33;;;;;;;;;;;;;;;31.54;15.12;101760.19;5050988;28;20231;-72
2023/06/12 10:37:18;;;;;;;;;;;;;;;31.67;14.45;101761.34;5034361;28;19919;-72
2023/06/12 10:39:45;;;;;;;;;;;;;;;31.85;14.83;101756.84;5052297;28;19921;-73
2023/06/12 10:42:11;;;;;;;;;;;;;;;32.09;14.62;101751.13;5052302;28;19912;-73
2023/06/12 10:44:41;;;;;;;;;;;;;;;32.30;14.44;101748.78;5051951;28;20247;-73
2023/06/12 10:47:17;;;;;;;;;;;;;;;32.40;13.30;101761.63;5052026;28;19913;-71
2023/06/12 10:49:54;;;;;;;;;;;;;;;32.80;14.55;101756.31;5052073;28;20134;-73
2023/06/12 10:52:20;;;;;;;;;;;;;;;33.20;13.80;101739.00;5036116;28;19999;-72
2023/06/12 10:54:45;;;;;;;;;;;;;;;33.50;13.83;101737.38;5052211;28;20269;-72
2023/06/12 10:57:10;;;;;;;;;;;;;;;33.75;13.54;101742.31;5034040;28;19912;-73
2023/06/12 10:59:36;;;;;;;;;;;;;;;33.98;13.22;101730.28;5051889;28;20365;-73
2023/06/12 11:02:04;;;;;;;;;;;;;;;34.13;12.77;101741.78;5035845;28;19927;-73
2023/06/12 11:04:34;;;;;;;;;;;;;;;34.17;10.34;101743.97;5055344;28;19913;-73
2023/06/12 11:07:00;;;;;;;;;;;;;;;34.21;11.30;101742.19;5055197;28;19943;-73
2023/06/12 11:09:25;;;;;;;;;;;;;;;34.41;12.47;101735.97;5063944;28;19912;-73
2023/06/12 11:11:51;;;;;;;;;;;;;;;34.70;12.54;101729.81;5075004;28;19966;-73
2023/06/12 11:14:17;;;;;;;;;;;;;;;35.03;12.71;101726.53;5075481;28;19961;-73
2023/06/12 11:16:45;;;;;;;;;;;;;;;35.10;12.29;101728.81;5057701;28;20336;-74
2023/06/12 11:19:11;;;;;;;;;;;;;;;35.18;12.27;101713.19;5057485;28;19919;-73
2023/06/12 11:21:37;;;;;;;;;;;;;;;35.25;12.51;101717.19;5057389;28;19913;-73
2023/06/12 11:24:06;;;;;;;;;;;;;;;35.10;11.99;101726.03;5057589;28;19912;-73
2023/06/12 11:26:33;;;;;;;;;;;;;;;34.97;12.30;101713.06;5034303;28;19960;-73
2023/06/12 11:29:17;;;;;;;;;;;;;;;34.47;11.37;101717.13;5034223;28;19948;-73
2023/06/12 11:32:02;;;;;;;;;;;;;;;34.25;12.54;101720.84;5017532;28;19943;-73
2023/06/12 11:34:34;;;;;;;;;;;;;;;34.13;12.83;101718.66;5035391;28;20278;-73
2023/06/12 11:37:17;;;;;;;;;;;;;;;33.89;13.21;101713.50;5017644;28;19913;-73
2023/06/12 11:39:43;;;;;;;;;;;;;;;33.62;13.01;101715.34;5035193;28;19913;-73
2023/06/12 11:42:10;;;;;;;;;;;;;;;33.35;12.97;101711.56;5035164;28;19978;-73
2023/06/12 11:44:36;;;;;;;;;;;;;;;33.41;13.22;101705.88;5033943;28;19920;-73
2023/06/12 11:47:01;;;;;;;;;;;;;;;33.53;13.37;101708.91;5040646;28;20296;-73
2023/06/12 11:49:30;;;;;;;;;;;;;;;33.61;13.59;101705.31;5036900;28;19966;-73
2023/06/12 11:51:56;;;;;;;;;;;;;;;33.56;13.49;101706.28;5055127;28;19920;-73
2023/06/12 11:54:22;;;;;;;;;;;;;;;33.61;13.46;101701.72;5037150;28;19913;-73
2023/06/12 11:56:47;;;;;;;;;;;;;;;33.68;13.36;101702.13;5036654;28;19958;-73
2023/06/12 11:59:13;;;;;;;;;;;;;;;33.78;12.24;101696.25;5036557;28;19925;-73
2023/06/12 12:01:38;;;;;;;;;;;;;;;34.11;13.56;101702.25;5035989;28;19913;-73
2023/06/12 12:04:06;;;;;;;;;;;;;;;34.61;12.87;101694.66;5036241;28;20653;-73
2023/06/12 12:06:45;;;;;;;;;;;;;;;34.93;12.40;101686.97;5036501;28;20334;-73
2023/06/12 12:09:12;;;;;;;;;;;;;;;35.13;13.01;101679.88;5061659;28;20494;-74
2023/06/12 12:11:38;;;;;;;;;;;;;;;35.23;12.22;101671.97;5074093;28;20361;-73
2023/06/12 12:14:03;;;;;;;;;;;;;;;35.20;12.61;101686.63;5056662;28;19955;-74
2023/06/12 12:16:29;;;;;;;;;;;;;;;35.44;12.60;101682.47;5074868;28;20007;-75
2023/06/12 12:18:56;;;;;;;;;;;;;;;35.37;11.85;101682.16;5074555;28;19951;-74
2023/06/12 12:21:22;;;;;;;;;;;;;;;35.66;12.61;101687.78;5053122;28;19917;-74
2023/06/12 12:23:51;;;;;;;;;;;;;;;35.99;12.20;101687.13;5053188;28;20396;-74
2023/06/12 12:26:16;;;;;;;;;;;;;;;36.11;11.83;101683.63;5053777;28;19920;-74
2023/06/12 12:28:42;;;;;;;;;;;;;;;36.37;12.33;101672.28;5052841;28;19913;-74
2023/06/12 12:31:08;;;;;;;;;;;;;;;36.67;11.15;101688.22;5052851;28;19970;-75
2023/06/12 12:33:34;;;;;;;;;;;;;;;36.96;11.37;101676.06;5053956;28;20365;-74